sensor_id;sensor_type;location;lat;lon;timestamp;pressure;altitude;pressure_sealevel;temperature;humidity
48053;BME280;33824;51.600;5.718;2023-05-07T00:00:22;101430.19;;;15.86;94.77
48053;BME280;33824;51.600;5.718;2023-05-07T00:03:08;101429.34;;;15.85;94.68
48053;BME280;33824;51.600;5.718;2023-05-07T00:05:33;101431.03;;;15.86;94.56
48053;BME280;33824;51.600;5.718;2023-05-07T00:08:02;101432.03;;;15.85;94.37
48053;BME280;33824;51.600;5.718;2023-05-07T00:10:28;101431.25;;;15.91;94.57
48053;BME280;33824;51.600;5.718;2023-05-07T00:12:53;101436.63;;;15.91;94.28
48053;BME280;33824;51.600;5.718;2023-05-07T00:15:18;101435.78;;;15.91;94.33
48053;BME280;33824;51.600;5.718;2023-05-07T00:17:44;101432.66;;;15.87;94.37
48053;BME280;33824;51.600;5.718;2023-05-07T00:20:10;101430.94;;;15.79;94.32
48053;BME280;33824;51.600;5.718;2023-05-07T00:22:36;101428.88;;;15.75;94.29
48053;BME280;33824;51.600;5.718;2023-05-07T00:25:02;101431.06;;;15.71;94.58
48053;BME280;33824;51.600;5.718;2023-05-07T00:27:27;101438.50;;;15.69;94.75
48053;BME280;33824;51.600;5.718;2023-05-07T00:29:53;101424.63;;;15.66;94.83
48053;BME280;33824;51.600;5.718;2023-05-07T00:32:19;101424.25;;;15.69;95.13
48053;BME280;33824;51.600;5.718;2023-05-07T00:34:44;101416.44;;;15.74;95.22
48053;BME280;33824;51.600;5.718;2023-05-07T00:37:10;101415.03;;;15.78;94.69
48053;BME280;33824;51.600;5.718;2023-05-07T00:39:37;101423.75;;;15.87;94.79
48053;BME280;33824;51.600;5.718;2023-05-07T00:42:03;101421.53;;;15.90;94.61
48053;BME280;33824;51.600;5.718;2023-05-07T00:44:29;101413.91;;;15.94;94.72
48053;BME280;33824;51.600;5.718;2023-05-07T00:46:56;101414.34;;;15.97;94.61
48053;BME280;33824;51.600;5.718;2023-05-07T00:49:22;101408.75;;;15.99;94.63
48053;BME280;33824;51.600;5.718;2023-05-07T00:51:49;101408.56;;;16.00;94.31
48053;BME280;33824;51.600;5.718;2023-05-07T00:54:15;101400.69;;;15.99;94.26
48053;BME280;33824;51.600;5.718;2023-05-07T00:56:41;101398.84;;;15.99;94.13
48053;BME280;33824;51.600;5.718;2023-05-07T00:59:06;101397.81;;;16.00;94.33
48053;BME280;33824;51.600;5.718;2023-05-07T01:01:32;101393.91;;;16.03;94.34
48053;BME280;33824;51.600;5.718;2023-05-07T01:03:57;101404.47;;;16.04;94.24
48053;BME280;33824;51.600;5.718;2023-05-07T01:06:25;101400.28;;;16.02;94.12
48053;BME280;33824;51.600;5.718;2023-05-07T01:08:53;101396.81;;;16.01;94.30
48053;BME280;33824;51.600;5.718;2023-05-07T01:11:21;101397.81;;;16.00;93.74
48053;BME280;33824;51.600;5.718;2023-05-07T01:13:49;101395.97;;;16.01;93.95
48053;BME280;33824;51.600;5.718;2023-05-07T01:16:15;101393.06;;;16.02;94.27
48053;BME280;33824;51.600;5.718;2023-05-07T01:18:41;101403.44;;;16.05;94.05
48053;BME280;33824;51.600;5.718;2023-05-07T01:21:07;101398.50;;;16.09;94.35
48053;BME280;33824;51.600;5.718;2023-05-07T01:23:36;101399.78;;;16.13;94.30
48053;BME280;33824;51.600;5.718;2023-05-07T01:26:02;101397.53;;;16.16;94.13
48053;BME280;33824;51.600;5.718;2023-05-07T01:28:28;101401.22;;;16.15;94.04
48053;BME280;33824;51.600;5.718;2023-05-07T01:30:59;101395.03;;;16.15;93.85
48053;BME280;33824;51.600;5.718;2023-05-07T01:33:29;101397.72;;;16.15;94.08
48053;BME280;33824;51.600;5.718;2023-05-07T01:35:57;101394.63;;;16.18;93.98
48053;BME280;33824;51.600;5.718;2023-05-07T01:38:26;101398.97;;;16.19;93.98
48053;BME280;33824;51.600;5.718;2023-05-07T01:40:52;101395.69;;;16.23;94.11
48053;BME280;33824;51.600;5.718;2023-05-07T01:43:19;101395.69;;;16.23;93.96
48053;BME280;33824;51.600;5.718;2023-05-07T01:45:45;101384.50;;;16.20;93.95
48053;BME280;33824;51.600;5.718;2023-05-07T01:48:12;101383.63;;;16.13;94.02
48053;BME280;33824;51.600;5.718;2023-05-07T01:50:39;101372.63;;;16.08;93.93
48053;BME280;33824;51.600;5.718;2023-05-07T01:53:05;101374.66;;;16.06;93.95
48053;BME280;33824;51.600;5.718;2023-05-07T01:55:30;101377.13;;;16.01;94.19
48053;BME280;33824;51.600;5.718;2023-05-07T01:57:56;101377.31;;;15.99;94.41
48053;BME280;33824;51.600;5.718;2023-05-07T02:00:22;101375.66;;;15.98;94.27
48053;BME280;33824;51.600;5.718;2023-05-07T02:02:47;101385.59;;;15.98;94.43
48053;BME280;33824;51.600;5.718;2023-05-07T02:05:13;101375.88;;;15.97;94.25
48053;BME280;33824;51.600;5.718;2023-05-07T02:07:39;101385.78;;;15.96;94.44
48053;BME280;33824;51.600;5.718;2023-05-07T02:10:05;101377.91;;;15.95;94.35
48053;BME280;33824;51.600;5.718;2023-05-07T02:12:30;101375.22;;;15.95;94.78
48053;BME280;33824;51.600;5.718;2023-05-07T02:14:56;101378.34;;;15.98;94.46
48053;BME280;33824;51.600;5.718;2023-05-07T02:17:21;101375.47;;;16.00;94.59
48053;BME280;33824;51.600;5.718;2023-05-07T02:19:47;101375.06;;;16.03;94.64
48053;BME280;33824;51.600;5.718;2023-05-07T02:22:12;101369.91;;;16.01;94.91
48053;BME280;33824;51.600;5.718;2023-05-07T02:24:38;101377.31;;;15.99;94.78
48053;BME280;33824;51.600;5.718;2023-05-07T02:27:03;101364.09;;;15.98;94.88
48053;BME280;33824;51.600;5.718;2023-05-07T02:29:29;101359.91;;;15.95;95.00
48053;BME280;33824;51.600;5.718;2023-05-07T02:31:55;101358.47;;;15.93;95.01
48053;BME280;33824;51.600;5.718;2023-05-07T02:34:20;101362.38;;;15.90;95.07
48053;BME280;33824;51.600;5.718;2023-05-07T02:36:46;101366.28;;;15.88;95.12
48053;BME280;33824;51.600;5.718;2023-05-07T02:39:13;101372.66;;;15.87;95.03
48053;BME280;33824;51.600;5.718;2023-05-07T02:41:39;101371.03;;;15.86;95.29
48053;BME280;33824;51.600;5.718;2023-05-07T02:44:04;101366.47;;;15.86;95.35
48053;BME280;33824;51.600;5.718;2023-05-07T02:46:30;101370.81;;;15.87;95.45
48053;BME280;33824;51.600;5.718;2023-05-07T02:48:56;101376.84;;;15.89;95.35
48053;BME280;33824;51.600;5.718;2023-05-07T02:51:22;101380.81;;;15.93;95.55
48053;BME280;33824;51.600;5.718;2023-05-07T02:53:48;101379.56;;;15.96;95.85
48053;BME280;33824;51.600;5.718;2023-05-07T02:56:14;101377.53;;;15.98;95.74
48053;BME280;33824;51.600;5.718;2023-05-07T02:58:40;101379.19;;;15.99;95.88
48053;BME280;33824;51.600;5.718;2023-05-07T03:01:06;101375.47;;;16.00;95.82
48053;BME280;33824;51.600;5.718;2023-05-07T03:03:31;101375.47;;;16.00;95.89
48053;BME280;33824;51.600;5.718;2023-05-07T03:05:57;101377.97;;;16.01;95.76
48053;BME280;33824;51.600;5.718;2023-05-07T03:08:22;101378.59;;;16.03;95.75
48053;BME280;33824;51.600;5.718;2023-05-07T03:10:48;101375.72;;;16.05;95.73
48053;BME280;33824;51.600;5.718;2023-05-07T03:13:14;101374.88;;;16.04;95.61
48053;BME280;33824;51.600;5.718;2023-05-07T03:15:40;101381.09;;;16.05;95.87
48053;BME280;33824;51.600;5.718;2023-05-07T03:18:05;101383.56;;;16.06;96.02
48053;BME280;33824;51.600;5.718;2023-05-07T03:20:34;101371.78;;;16.07;95.73
48053;BME280;33824;51.600;5.718;2023-05-07T03:22:59;101375.31;;;16.08;95.85
48053;BME280;33824;51.600;5.718;2023-05-07T03:25:25;101371.38;;;16.10;95.77
48053;BME280;33824;51.600;5.718;2023-05-07T03:27:51;101369.34;;;16.12;95.67
48053;BME280;33824;51.600;5.718;2023-05-07T03:30:16;101369.97;;;16.14;95.90
48053;BME280;33824;51.600;5.718;2023-05-07T03:32:42;101374.34;;;16.15;95.60
48053;BME280;33824;51.600;5.718;2023-05-07T03:35:08;101374.16;;;16.17;95.85
48053;BME280;33824;51.600;5.718;2023-05-07T03:37:33;101377.63;;;16.17;95.67
48053;BME280;33824;51.600;5.718;2023-05-07T03:39:59;101370.63;;;16.16;95.51
48053;BME280;33824;51.600;5.718;2023-05-07T03:42:25;101371.81;;;16.14;95.48
48053;BME280;33824;51.600;5.718;2023-05-07T03:44:50;101365.19;;;16.10;95.56
48053;BME280;33824;51.600;5.718;2023-05-07T03:47:16;101371.16;;;16.05;96.06
48053;BME280;33824;51.600;5.718;2023-05-07T03:49:41;101372.59;;;16.01;96.13
48053;BME280;33824;51.600;5.718;2023-05-07T03:52:08;101362.41;;;15.97;95.95
48053;BME280;33824;51.600;5.718;2023-05-07T03:54:33;101367.16;;;15.95;96.08
48053;BME280;33824;51.600;5.718;2023-05-07T03:56:59;101367.53;;;15.92;96.25
48053;BME280;33824;51.600;5.718;2023-05-07T03:59:24;101375.59;;;15.92;96.44
48053;BME280;33824;51.600;5.718;2023-05-07T04:01:50;101371.47;;;15.89;96.44
48053;BME280;33824;51.600;5.718;2023-05-07T04:04:16;101373.72;;;15.86;96.45
48053;BME280;33824;51.600;5.718;2023-05-07T04:06:41;101374.72;;;15.84;96.96
48053;BME280;33824;51.600;5.718;2023-05-07T04:09:07;101384.25;;;15.87;96.87
48053;BME280;33824;51.600;5.718;2023-05-07T04:11:33;101379.72;;;15.88;96.82
48053;BME280;33824;51.600;5.718;2023-05-07T04:13:59;101381.38;;;15.89;97.09
48053;BME280;33824;51.600;5.718;2023-05-07T04:16:24;101386.75;;;15.89;97.02
48053;BME280;33824;51.600;5.718;2023-05-07T04:18:50;101389.44;;;15.89;97.37
48053;BME280;33824;51.600;5.718;2023-05-07T04:21:19;101386.31;;;15.85;97.10
48053;BME280;33824;51.600;5.718;2023-05-07T04:23:48;101393.38;;;15.86;96.98
48053;BME280;33824;51.600;5.718;2023-05-07T04:26:15;101392.75;;;15.91;97.14
48053;BME280;33824;51.600;5.718;2023-05-07T04:28:41;101396.09;;;15.93;97.52
48053;BME280;33824;51.600;5.718;2023-05-07T04:31:07;101397.56;;;15.95;97.42
48053;BME280;33824;51.600;5.718;2023-05-07T04:33:33;101399.66;;;16.00;97.22
48053;BME280;33824;51.600;5.718;2023-05-07T04:36:02;101392.84;;;15.97;97.02
48053;BME280;33824;51.600;5.718;2023-05-07T04:38:32;101386.63;;;15.97;96.98
48053;BME280;33824;51.600;5.718;2023-05-07T04:41:02;101398.84;;;15.99;97.01
48053;BME280;33824;51.600;5.718;2023-05-07T04:43:28;101395.09;;;15.94;97.21
48053;BME280;33824;51.600;5.718;2023-05-07T04:45:54;101391.56;;;15.93;97.35
48053;BME280;33824;51.600;5.718;2023-05-07T04:48:20;101392.75;;;15.91;97.27
48053;BME280;33824;51.600;5.718;2023-05-07T04:50:49;101398.53;;;15.88;97.24
48053;BME280;33824;51.600;5.718;2023-05-07T04:53:15;101394.44;;;15.92;97.41
48053;BME280;33824;51.600;5.718;2023-05-07T04:55:40;101391.75;;;15.92;97.54
48053;BME280;33824;51.600;5.718;2023-05-07T04:58:08;101396.28;;;15.91;97.38
48053;BME280;33824;51.600;5.718;2023-05-07T05:00:34;101401.28;;;15.94;97.50
48053;BME280;33824;51.600;5.718;2023-05-07T05:02:59;101396.16;;;15.99;97.84
48053;BME280;33824;51.600;5.718;2023-05-07T05:05:25;101396.97;;;16.00;97.52
48053;BME280;33824;51.600;5.718;2023-05-07T05:07:51;101401.13;;;16.02;97.72
48053;BME280;33824;51.600;5.718;2023-05-07T05:10:17;101398.88;;;16.06;97.86
48053;BME280;33824;51.600;5.718;2023-05-07T05:12:43;101400.75;;;16.05;98.17
48053;BME280;33824;51.600;5.718;2023-05-07T05:15:09;101409.84;;;16.04;98.05
48053;BME280;33824;51.600;5.718;2023-05-07T05:17:35;101417.91;;;16.04;98.38
48053;BME280;33824;51.600;5.718;2023-05-07T05:20:01;101410.06;;;16.09;98.25
48053;BME280;33824;51.600;5.718;2023-05-07T05:22:27;101415.69;;;16.14;98.21
48053;BME280;33824;51.600;5.718;2023-05-07T05:24:55;101408.06;;;16.18;98.17
48053;BME280;33824;51.600;5.718;2023-05-07T05:27:20;101413.28;;;16.19;98.11
48053;BME280;33824;51.600;5.718;2023-05-07T05:29:46;101421.38;;;16.26;98.27
48053;BME280;33824;51.600;5.718;2023-05-07T05:32:12;101424.09;;;16.32;98.06
48053;BME280;33824;51.600;5.718;2023-05-07T05:34:37;101426.22;;;16.44;98.27
48053;BME280;33824;51.600;5.718;2023-05-07T05:37:03;101431.09;;;16.55;98.01
48053;BME280;33824;51.600;5.718;2023-05-07T05:39:28;101428.25;;;16.63;97.83
48053;BME280;33824;51.600;5.718;2023-05-07T05:41:54;101435.53;;;16.69;98.00
48053;BME280;33824;51.600;5.718;2023-05-07T05:44:19;101432.88;;;16.75;97.67
48053;BME280;33824;51.600;5.718;2023-05-07T05:46:45;101436.59;;;16.74;97.65
48053;BME280;33824;51.600;5.718;2023-05-07T05:49:10;101434.53;;;16.76;97.65
48053;BME280;33824;51.600;5.718;2023-05-07T05:51:36;101435.38;;;16.77;97.73
48053;BME280;33824;51.600;5.718;2023-05-07T05:54:01;101433.69;;;16.76;97.68
48053;BME280;33824;51.600;5.718;2023-05-07T05:56:28;101439.94;;;16.76;97.60
48053;BME280;33824;51.600;5.718;2023-05-07T05:58:54;101438.69;;;16.79;97.58
48053;BME280;33824;51.600;5.718;2023-05-07T06:01:20;101440.59;;;16.85;97.82
48053;BME280;33824;51.600;5.718;2023-05-07T06:03:48;101434.78;;;16.82;97.45
48053;BME280;33824;51.600;5.718;2023-05-07T06:06:14;101438.94;;;16.84;97.90
48053;BME280;33824;51.600;5.718;2023-05-07T06:08:39;101442.88;;;16.88;97.96
48053;BME280;33824;51.600;5.718;2023-05-07T06:11:05;101434.19;;;16.93;97.76
48053;BME280;33824;51.600;5.718;2023-05-07T06:13:31;101441.44;;;16.92;97.65
48053;BME280;33824;51.600;5.718;2023-05-07T06:15:56;101440.84;;;16.97;97.57
48053;BME280;33824;51.600;5.718;2023-05-07T06:18:22;101436.69;;;17.01;97.40
48053;BME280;33824;51.600;5.718;2023-05-07T06:20:47;101437.16;;;17.04;97.62
48053;BME280;33824;51.600;5.718;2023-05-07T06:23:13;101439.44;;;17.14;97.36
48053;BME280;33824;51.600;5.718;2023-05-07T06:25:39;101443.81;;;17.15;97.08
48053;BME280;33824;51.600;5.718;2023-05-07T06:28:05;101435.94;;;17.20;97.03
48053;BME280;33824;51.600;5.718;2023-05-07T06:30:31;101441.78;;;17.30;96.91
48053;BME280;33824;51.600;5.718;2023-05-07T06:32:56;101437.44;;;17.36;96.95
48053;BME280;33824;51.600;5.718;2023-05-07T06:35:22;101440.16;;;17.42;96.78
48053;BME280;33824;51.600;5.718;2023-05-07T06:37:47;101440.78;;;17.44;96.54
48053;BME280;33824;51.600;5.718;2023-05-07T06:40:13;101433.72;;;17.43;96.39
48053;BME280;33824;51.600;5.718;2023-05-07T06:42:38;101437.84;;;17.39;96.34
48053;BME280;33824;51.600;5.718;2023-05-07T06:45:05;101443.06;;;17.41;96.36
48053;BME280;33824;51.600;5.718;2023-05-07T06:47:30;101442.44;;;17.45;96.61
48053;BME280;33824;51.600;5.718;2023-05-07T06:49:56;101445.56;;;17.55;96.35
48053;BME280;33824;51.600;5.718;2023-05-07T06:52:21;101451.41;;;17.59;96.00
48053;BME280;33824;51.600;5.718;2023-05-07T06:54:47;101448.72;;;17.59;95.92
48053;BME280;33824;51.600;5.718;2023-05-07T06:57:12;101454.31;;;17.64;95.73
48053;BME280;33824;51.600;5.718;2023-05-07T06:59:38;101451.84;;;17.69;95.63
48053;BME280;33824;51.600;5.718;2023-05-07T07:02:03;101461.81;;;17.75;95.50
48053;BME280;33824;51.600;5.718;2023-05-07T07:04:29;101449.56;;;17.86;95.37
48053;BME280;33824;51.600;5.718;2023-05-07T07:06:57;101457.88;;;17.91;95.39
48053;BME280;33824;51.600;5.718;2023-05-07T07:09:23;101459.53;;;17.98;95.23
48053;BME280;33824;51.600;5.718;2023-05-07T07:11:48;101464.09;;;18.04;95.16
48053;BME280;33824;51.600;5.718;2023-05-07T07:14:14;101462.25;;;17.98;94.73
48053;BME280;33824;51.600;5.718;2023-05-07T07:16:40;101458.50;;;17.99;94.53
48053;BME280;33824;51.600;5.718;2023-05-07T07:19:06;101460.97;;;18.01;94.32
48053;BME280;33824;51.600;5.718;2023-05-07T07:21:32;101455.81;;;17.99;94.43
48053;BME280;33824;51.600;5.718;2023-05-07T07:23:57;101459.94;;;18.02;94.52
48053;BME280;33824;51.600;5.718;2023-05-07T07:26:23;101454.97;;;18.05;94.31
48053;BME280;33824;51.600;5.718;2023-05-07T07:28:49;101457.06;;;18.10;94.06
48053;BME280;33824;51.600;5.718;2023-05-07T07:31:14;101466.81;;;18.11;93.81
48053;BME280;33824;51.600;5.718;2023-05-07T07:33:40;101463.47;;;18.15;93.74
48053;BME280;33824;51.600;5.718;2023-05-07T07:36:06;101469.09;;;18.14;93.23
48053;BME280;33824;51.600;5.718;2023-05-07T07:38:33;101467.00;;;18.16;93.35
48053;BME280;33824;51.600;5.718;2023-05-07T07:40:58;101469.50;;;18.17;93.07
48053;BME280;33824;51.600;5.718;2023-05-07T07:43:24;101469.06;;;18.20;93.05
48053;BME280;33824;51.600;5.718;2023-05-07T07:45:49;101469.69;;;18.22;93.16
48053;BME280;33824;51.600;5.718;2023-05-07T07:48:15;101470.13;;;18.26;92.91
48053;BME280;33824;51.600;5.718;2023-05-07T07:50:40;101476.75;;;18.37;93.19
48053;BME280;33824;51.600;5.718;2023-05-07T07:53:06;101474.00;;;18.50;92.67
48053;BME280;33824;51.600;5.718;2023-05-07T07:55:32;101469.28;;;18.52;92.40
48053;BME280;33824;51.600;5.718;2023-05-07T07:57:57;101468.84;;;18.55;92.31
48053;BME280;33824;51.600;5.718;2023-05-07T08:00:23;101469.66;;;18.62;91.96
48053;BME280;33824;51.600;5.718;2023-05-07T08:02:48;101468.19;;;18.66;91.54
48053;BME280;33824;51.600;5.718;2023-05-07T08:05:14;101468.41;;;18.71;91.46
48053;BME280;33824;51.600;5.718;2023-05-07T08:07:42;101474.38;;;18.86;91.26
48053;BME280;33824;51.600;5.718;2023-05-07T08:10:08;101472.50;;;18.93;91.12
48053;BME280;33824;51.600;5.718;2023-05-07T08:12:34;101473.88;;;19.02;90.31
48053;BME280;33824;51.600;5.718;2023-05-07T08:15:00;101471.75;;;19.17;90.36
48053;BME280;33824;51.600;5.718;2023-05-07T08:17:25;101466.97;;;19.20;89.54
48053;BME280;33824;51.600;5.718;2023-05-07T08:19:51;101477.31;;;19.29;89.71
48053;BME280;33824;51.600;5.718;2023-05-07T08:22:16;101467.91;;;19.38;88.85
48053;BME280;33824;51.600;5.718;2023-05-07T08:24:43;101468.66;;;19.52;88.83
48053;BME280;33824;51.600;5.718;2023-05-07T08:27:09;101471.63;;;19.50;88.23
48053;BME280;33824;51.600;5.718;2023-05-07T08:29:34;101474.09;;;19.52;88.07
48053;BME280;33824;51.600;5.718;2023-05-07T08:32:00;101481.25;;;19.71;88.02
48053;BME280;33824;51.600;5.718;2023-05-07T08:34:25;101477.38;;;19.92;87.39
48053;BME280;33824;51.600;5.718;2023-05-07T08:36:51;101481.66;;;20.24;86.46
48053;BME280;33824;51.600;5.718;2023-05-07T08:39:16;101491.81;;;20.35;85.65
48053;BME280;33824;51.600;5.718;2023-05-07T08:41:45;101487.91;;;20.31;85.29
48053;BME280;33824;51.600;5.718;2023-05-07T08:44:13;101485.72;;;20.40;85.10
48053;BME280;33824;51.600;5.718;2023-05-07T08:46:41;101496.25;;;20.73;84.40
48053;BME280;33824;51.600;5.718;2023-05-07T08:49:07;101485.91;;;20.81;83.46
48053;BME280;33824;51.600;5.718;2023-05-07T08:51:33;101488.78;;;20.86;83.46
48053;BME280;33824;51.600;5.718;2023-05-07T08:53:59;101477.66;;;20.76;82.94
48053;BME280;33824;51.600;5.718;2023-05-07T08:56:26;101480.28;;;20.83;83.65
48053;BME280;33824;51.600;5.718;2023-05-07T08:58:52;101486.31;;;20.85;82.94
48053;BME280;33824;51.600;5.718;2023-05-07T09:01:22;101489.84;;;21.03;82.91
48053;BME280;33824;51.600;5.718;2023-05-07T09:03:47;101484.09;;;21.30;82.35
48053;BME280;33824;51.600;5.718;2023-05-07T09:06:14;101481.94;;;21.50;81.38
48053;BME280;33824;51.600;5.718;2023-05-07T09:08:40;101485.97;;;21.59;81.03
48053;BME280;33824;51.600;5.718;2023-05-07T09:11:11;101485.91;;;21.77;81.07
48053;BME280;33824;51.600;5.718;2023-05-07T09:13:38;101479.31;;;21.85;80.12
48053;BME280;33824;51.600;5.718;2023-05-07T09:16:10;101486.31;;;21.51;79.64
48053;BME280;33824;51.600;5.718;2023-05-07T09:18:44;101486.44;;;21.56;80.03
48053;BME280;33824;51.600;5.718;2023-05-07T09:21:11;101482.94;;;21.67;80.09
48053;BME280;33824;51.600;5.718;2023-05-07T09:23:37;101483.41;;;21.64;80.08
48053;BME280;33824;51.600;5.718;2023-05-07T09:26:03;101484.59;;;21.68;80.26
48053;BME280;33824;51.600;5.718;2023-05-07T09:28:29;101482.63;;;21.75;80.90
48053;BME280;33824;51.600;5.718;2023-05-07T09:30:55;101482.28;;;21.83;80.16
48053;BME280;33824;51.600;5.718;2023-05-07T09:33:21;101479.63;;;21.65;79.88
48053;BME280;33824;51.600;5.718;2023-05-07T09:35:51;101477.75;;;21.66;80.14
48053;BME280;33824;51.600;5.718;2023-05-07T09:38:18;101474.16;;;21.83;80.08
48053;BME280;33824;51.600;5.718;2023-05-07T09:40:45;101485.88;;;21.95;79.06
48053;BME280;33824;51.600;5.718;2023-05-07T09:43:13;101483.41;;;21.94;78.05
48053;BME280;33824;51.600;5.718;2023-05-07T09:45:39;101481.09;;;21.79;78.35
48053;BME280;33824;51.600;5.718;2023-05-07T09:48:06;101487.78;;;21.95;78.29
48053;BME280;33824;51.600;5.718;2023-05-07T09:50:36;101481.41;;;22.01;77.20
48053;BME280;33824;51.600;5.718;2023-05-07T09:53:03;101485.53;;;22.15;77.20
48053;BME280;33824;51.600;5.718;2023-05-07T09:55:29;101480.72;;;22.29;76.80
48053;BME280;33824;51.600;5.718;2023-05-07T09:57:55;101480.94;;;22.39;76.48
48053;BME280;33824;51.600;5.718;2023-05-07T10:00:22;101474.09;;;22.60;77.04
48053;BME280;33824;51.600;5.718;2023-05-07T10:02:49;101480.13;;;22.62;75.59
48053;BME280;33824;51.600;5.718;2023-05-07T10:05:21;101479.19;;;22.68;74.97
48053;BME280;33824;51.600;5.718;2023-05-07T10:07:47;101474.56;;;22.68;74.96
48053;BME280;33824;51.600;5.718;2023-05-07T10:10:14;101472.69;;;22.69;74.98
48053;BME280;33824;51.600;5.718;2023-05-07T10:12:41;101479.19;;;22.68;74.71
48053;BME280;33824;51.600;5.718;2023-05-07T10:15:11;101473.38;;;22.64;74.03
48053;BME280;33824;51.600;5.718;2023-05-07T10:17:38;101472.69;;;22.69;73.71
48053;BME280;33824;51.600;5.718;2023-05-07T10:20:05;101474.56;;;22.68;73.53
48053;BME280;33824;51.600;5.718;2023-05-07T10:22:43;101476.00;;;22.59;73.02
48053;BME280;33824;51.600;5.718;2023-05-07T10:25:28;101476.09;;;22.64;70.30
48053;BME280;33824;51.600;5.718;2023-05-07T10:27:57;101473.75;;;22.68;72.11
48053;BME280;33824;51.600;5.718;2023-05-07T10:33:15;101476.44;;;22.79;72.08
48053;BME280;33824;51.600;5.718;2023-05-07T10:35:44;101480.94;;;22.85;71.26
48053;BME280;33824;51.600;5.718;2023-05-07T10:38:10;101477.19;;;22.75;71.19
48053;BME280;33824;51.600;5.718;2023-05-07T10:40:36;101477.41;;;22.85;71.45
48053;BME280;33824;51.600;5.718;2023-05-07T10:43:03;101482.56;;;22.98;71.71
48053;BME280;33824;51.600;5.718;2023-05-07T10:45:32;101481.16;;;22.95;70.68
48053;BME280;33824;51.600;5.718;2023-05-07T10:48:17;101482.13;;;22.89;70.04
48053;BME280;33824;51.600;5.718;2023-05-07T10:50:44;101475.69;;;23.07;70.79
48053;BME280;33824;51.600;5.718;2023-05-07T10:56:28;101486.47;;;22.90;70.01
48053;BME280;33824;51.600;5.718;2023-05-07T10:58:29;101487.53;;;23.01;70.14
48053;BME280;33824;51.600;5.718;2023-05-07T11:01:02;101477.00;;;23.05;70.31
48053;BME280;33824;51.600;5.718;2023-05-07T11:03:28;101481.56;;;23.16;69.16
48053;BME280;33824;51.600;5.718;2023-05-07T11:06:14;101477.19;;;23.15;67.92
48053;BME280;33824;51.600;5.718;2023-05-07T11:11:18;101468.69;;;23.51;67.93
48053;BME280;33824;51.600;5.718;2023-05-07T11:13:44;101471.59;;;23.61;68.53
48053;BME280;33824;51.600;5.718;2023-05-07T11:16:24;101469.91;;;23.44;67.49
48053;BME280;33824;51.600;5.718;2023-05-07T11:18:55;101476.88;;;23.51;68.08
48053;BME280;33824;51.600;5.718;2023-05-07T11:21:34;101464.88;;;23.52;67.89
48053;BME280;33824;51.600;5.718;2023-05-07T11:24:02;101472.03;;;23.86;67.02
48053;BME280;33824;51.600;5.718;2023-05-07T11:26:30;101466.09;;;24.06;66.44
48053;BME280;33824;51.600;5.718;2023-05-07T11:28:57;101477.75;;;24.18;65.53
48053;BME280;33824;51.600;5.718;2023-05-07T11:31:27;101467.91;;;24.01;65.13
48053;BME280;33824;51.600;5.718;2023-05-07T11:33:54;101476.00;;;23.96;64.39
48053;BME280;33824;51.600;5.718;2023-05-07T11:36:22;101476.09;;;24.01;64.77
48053;BME280;33824;51.600;5.718;2023-05-07T11:38:48;101477.84;;;24.23;64.48
48053;BME280;33824;51.600;5.718;2023-05-07T11:41:16;101469.97;;;24.44;63.80
48053;BME280;33824;51.600;5.718;2023-05-07T11:43:58;101466.50;;;24.31;60.71
48053;BME280;33824;51.600;5.718;2023-05-07T11:46:26;101473.28;;;24.29;62.96
48053;BME280;33824;51.600;5.718;2023-05-07T11:48:52;101471.16;;;24.31;62.58
48053;BME280;33824;51.600;5.718;2023-05-07T11:51:19;101472.41;;;24.62;63.75
48053;BME280;33824;51.600;5.718;2023-05-07T11:53:45;101477.53;;;24.58;62.79
48053;BME280;33824;51.600;5.718;2023-05-07T11:56:12;101470.69;;;24.56;63.02
48053;BME280;33824;51.600;5.718;2023-05-07T11:58:39;101479.78;;;24.61;63.46
48053;BME280;33824;51.600;5.718;2023-05-07T12:01:07;101471.63;;;24.83;63.35
48053;BME280;33824;51.600;5.718;2023-05-07T12:03:34;101473.34;;;24.51;62.67
48053;BME280;33824;51.600;5.718;2023-05-07T12:06:01;101474.75;;;24.53;63.91
48053;BME280;33824;51.600;5.718;2023-05-07T12:08:27;101478.25;;;24.70;62.85
48053;BME280;33824;51.600;5.718;2023-05-07T12:10:53;101476.16;;;24.94;62.59
48053;BME280;33824;51.600;5.718;2023-05-07T12:13:21;101473.09;;;24.91;61.83
48053;BME280;33824;51.600;5.718;2023-05-07T12:15:51;101475.69;;;24.80;62.34
48053;BME280;33824;51.600;5.718;2023-05-07T12:18:17;101467.75;;;24.79;61.75
48053;BME280;33824;51.600;5.718;2023-05-07T12:20:42;101478.88;;;24.77;61.53
48053;BME280;33824;51.600;5.718;2023-05-07T12:23:08;101480.09;;;24.65;60.61
48053;BME280;33824;51.600;5.718;2023-05-07T12:25:35;101483.75;;;24.54;60.45
48053;BME280;33824;51.600;5.718;2023-05-07T12:28:02;101477.47;;;24.53;60.87
48053;BME280;33824;51.600;5.718;2023-05-07T12:30:29;101482.94;;;24.53;60.78
48053;BME280;33824;51.600;5.718;2023-05-07T12:32:54;101482.53;;;24.45;61.07
48053;BME280;33824;51.600;5.718;2023-05-07T12:35:37;101478.91;;;24.22;59.40
48053;BME280;33824;51.600;5.718;2023-05-07T12:38:07;101486.88;;;24.12;60.83
48053;BME280;33824;51.600;5.718;2023-05-07T12:40:42;101485.97;;;23.90;60.21
48053;BME280;33824;51.600;5.718;2023-05-07T12:43:15;101480.09;;;23.65;60.60
48053;BME280;33824;51.600;5.718;2023-05-07T12:45:42;101477.28;;;23.60;61.33
48053;BME280;33824;51.600;5.718;2023-05-07T12:48:09;101491.59;;;23.55;61.86
48053;BME280;33824;51.600;5.718;2023-05-07T12:50:35;101480.03;;;23.48;62.45
48053;BME280;33824;51.600;5.718;2023-05-07T12:53:03;101495.13;;;23.27;62.63
48053;BME280;33824;51.600;5.718;2023-05-07T12:55:31;101509.03;;;23.03;62.64